createdAt,value
2022-08-30T00:00:36.211Z,7.85
2022-08-30T00:03:05.041Z,6.85
2022-08-30T00:05:33.545Z,6.97
2022-08-30T00:08:02.024Z,9.00
2022-08-30T00:10:31.542Z,6.70
2022-08-30T00:13:02.379Z,8.05
2022-08-30T00:15:30.590Z,9.20
2022-08-30T00:17:58.734Z,7.57
2022-08-30T00:28:33.973Z,7.38
2022-08-30T00:31:02.382Z,5.82
2022-08-30T00:33:32.981Z,8.07
2022-08-30T00:36:02.781Z,8.02
2022-08-30T00:38:30.823Z,6.18
2022-08-30T00:40:59.727Z,6.85
2022-08-30T00:43:31.391Z,5.72
2022-08-30T00:46:04.323Z,8.60
2022-08-30T00:48:33.011Z,6.57
2022-08-30T00:51:04.475Z,6.65
2022-08-30T00:53:38.412Z,7.53
2022-08-30T00:56:07.434Z,10.57
2022-08-30T00:58:43.309Z,6.80
2022-08-30T01:01:13.370Z,8.88
2022-08-30T01:03:44.996Z,6.05
2022-08-30T01:06:16.041Z,5.30
2022-08-30T01:08:44.557Z,9.50
2022-08-30T01:11:13.811Z,8.00
2022-08-30T01:13:42.183Z,5.10
2022-08-30T01:16:12.071Z,6.00
2022-08-30T01:18:40.776Z,6.45
2022-08-30T01:21:17.541Z,6.38
2022-08-30T01:23:50.397Z,6.40
2022-08-30T01:26:21.939Z,4.72
2022-08-30T01:28:55.663Z,7.10
2022-08-30T01:31:24.205Z,8.15
2022-08-30T01:33:52.460Z,6.07
2022-08-30T01:36:21.944Z,7.97
2022-08-30T01:38:53.975Z,7.13
2022-08-30T01:41:24.896Z,6.75
2022-08-30T01:43:55.962Z,6.18
2022-08-30T01:46:26.734Z,7.60
2022-08-30T01:48:56.090Z,5.28
2022-08-30T01:51:25.675Z,6.35
2022-08-30T01:53:55.755Z,5.70
2022-08-30T01:56:24.649Z,5.38
2022-08-30T01:58:54.324Z,6.68
2022-08-30T02:01:26.275Z,6.68
2022-08-30T02:03:57.110Z,7.03
2022-08-30T02:06:26.183Z,4.85
2022-08-30T02:08:55.695Z,7.20
2022-08-30T02:11:23.904Z,5.28
2022-08-30T02:13:52.125Z,7.85
2022-08-30T02:16:23.154Z,7.60
2022-08-30T02:18:53.059Z,7.60
2022-08-30T02:21:21.478Z,5.82
2022-08-30T02:23:49.588Z,6.15
2022-08-30T02:26:19.631Z,7.10
2022-08-30T02:28:49.813Z,5.57
2022-08-30T02:31:20.974Z,6.65
2022-08-30T02:33:51.135Z,6.40
2022-08-30T02:36:20.767Z,7.38
2022-08-30T02:38:52.296Z,9.05
2022-08-30T02:41:24.588Z,8.25
2022-08-30T02:43:58.340Z,5.55
2022-08-30T02:46:34.436Z,6.70
2022-08-30T02:49:23.790Z,5.55
2022-08-30T02:51:51.907Z,5.85
2022-08-30T02:54:20.682Z,6.82
2022-08-30T02:56:50.947Z,8.30
2022-08-30T02:59:19.869Z,6.32
2022-08-30T03:01:48.032Z,7.80
2022-08-30T03:04:16.165Z,10.95
2022-08-30T03:06:44.632Z,5.93
2022-08-30T03:09:12.657Z,4.80
2022-08-30T03:11:42.598Z,4.82
2022-08-30T03:14:12.070Z,6.85
2022-08-30T03:16:40.451Z,4.55
2022-08-30T03:19:08.593Z,8.93
2022-08-30T03:21:38.598Z,9.00
2022-08-30T03:24:07.299Z,4.82
2022-08-30T03:26:37.870Z,9.63
2022-08-30T03:29:06.312Z,5.63
2022-08-30T03:31:53.402Z,7.72
2022-08-30T03:34:22.725Z,8.27
2022-08-30T03:36:50.899Z,8.75
2022-08-30T03:39:19.186Z,7.95
2022-08-30T03:41:47.261Z,7.15
2022-08-30T03:44:15.532Z,5.97
2022-08-30T03:46:45.156Z,6.78
2022-08-30T03:49:13.264Z,8.45
2022-08-30T03:51:41.392Z,5.78
2022-08-30T03:54:09.972Z,9.27
2022-08-30T03:56:40.384Z,9.93
2022-08-30T03:59:08.594Z,8.88
2022-08-30T04:01:36.729Z,5.60
2022-08-30T04:04:08.651Z,8.27
2022-08-30T04:06:36.827Z,8.05
2022-08-30T04:09:05.290Z,7.38
2022-08-30T04:11:33.498Z,9.32
2022-08-30T04:14:02.537Z,8.00
2022-08-30T04:16:31.617Z,7.68
2022-08-30T04:18:59.873Z,6.93
2022-08-30T04:21:29.463Z,7.15
2022-08-30T04:23:57.741Z,5.38
2022-08-30T04:26:29.318Z,6.88
2022-08-30T04:28:59.299Z,9.02
2022-08-30T04:31:28.024Z,6.93
2022-08-30T04:33:56.352Z,5.80
2022-08-30T04:36:24.894Z,6.20
2022-08-30T04:38:54.466Z,6.32
2022-08-30T04:41:24.442Z,6.93
2022-08-30T04:43:52.791Z,7.72
2022-08-30T04:46:21.505Z,6.43
2022-08-30T04:48:50.683Z,7.80
2022-08-30T04:51:19.502Z,6.53
2022-08-30T04:53:47.708Z,4.80
2022-08-30T04:56:22.347Z,6.95
2022-08-30T04:58:54.215Z,7.57
2022-08-30T05:01:24.511Z,7.45
2022-08-30T05:03:54.199Z,6.85
2022-08-30T05:06:24.252Z,6.95
2022-08-30T05:08:53.233Z,7.63
2022-08-30T05:11:23.016Z,8.10
2022-08-30T05:13:51.143Z,7.80
2022-08-30T05:16:20.788Z,7.18
2022-08-30T05:18:50.891Z,6.68
2022-08-30T05:21:21.634Z,7.07
2022-08-30T05:23:50.522Z,7.68
2022-08-30T05:26:22.090Z,10.15
2022-08-30T05:28:54.694Z,8.13
2022-08-30T05:31:25.303Z,6.40
2022-08-30T05:33:54.945Z,7.60
2022-08-30T05:36:24.715Z,6.85
2022-08-30T05:38:53.444Z,6.00
2022-08-30T05:41:22.843Z,7.72
2022-08-30T05:43:56.959Z,7.22
2022-08-30T05:46:26.323Z,8.35
2022-08-30T05:48:54.549Z,6.38
2022-08-30T05:51:25.310Z,7.85
2022-08-30T05:53:54.866Z,12.02
2022-08-30T05:56:25.944Z,13.05
2022-08-30T05:58:58.016Z,5.93
2022-08-30T06:01:28.916Z,7.57
2022-08-30T06:04:03.659Z,8.82
2022-08-30T06:09:05.295Z,9.30
2022-08-30T06:11:34.919Z,8.23
2022-08-30T06:14:05.172Z,8.98
2022-08-30T06:16:34.255Z,13.98
2022-08-30T06:19:02.917Z,8.25
2022-08-30T06:21:34.184Z,9.00
2022-08-30T06:24:03.486Z,7.38
2022-08-30T06:29:01.084Z,15.68
2022-08-30T06:31:30.590Z,11.25
2022-08-30T06:33:58.748Z,10.98
2022-08-30T06:36:27.580Z,10.90
2022-08-30T06:38:59.627Z,10.10
2022-08-30T06:41:30.186Z,12.57
2022-08-30T06:43:59.411Z,8.45
2022-08-30T06:46:33.389Z,11.45
2022-08-30T06:49:02.642Z,10.55
2022-08-30T06:51:34.933Z,8.55
2022-08-30T06:54:04.172Z,9.00
2022-08-30T06:56:33.033Z,9.40
2022-08-30T06:59:01.109Z,9.30
2022-08-30T07:01:31.502Z,7.03
2022-08-30T07:04:01.166Z,7.90
2022-08-30T07:06:30.325Z,7.25
2022-08-30T07:08:58.684Z,6.10
2022-08-30T07:11:32.394Z,9.25
2022-08-30T07:14:01.051Z,5.90
2022-08-30T07:16:30.830Z,7.10
2022-08-30T07:18:58.935Z,7.43
2022-08-30T07:21:29.031Z,12.52
2022-08-30T07:23:59.107Z,7.55
2022-08-30T07:26:29.598Z,8.75
2022-08-30T07:28:58.047Z,9.50
2022-08-30T07:31:27.022Z,6.82
2022-08-30T07:33:57.204Z,7.53
2022-08-30T07:36:26.237Z,6.25
2022-08-30T07:38:55.586Z,6.70
2022-08-30T07:41:26.636Z,7.28
2022-08-30T07:43:55.411Z,8.30
2022-08-30T07:46:24.519Z,7.32
2022-08-30T07:48:54.243Z,7.15
2022-08-30T07:51:28.907Z,8.80
2022-08-30T07:53:57.825Z,5.65
2022-08-30T07:56:26.230Z,9.35
2022-08-30T07:58:54.979Z,7.43
2022-08-30T08:01:24.213Z,6.78
2022-08-30T08:03:52.851Z,14.07
2022-08-30T08:06:23.144Z,10.93
2022-08-30T08:08:54.271Z,8.32
2022-08-30T08:11:26.218Z,8.75
2022-08-30T08:13:56.561Z,7.07
2022-08-30T08:16:26.619Z,7.60
2022-08-30T08:18:55.840Z,12.23
2022-08-30T08:21:25.543Z,12.85
2022-08-30T08:23:55.050Z,11.25
2022-08-30T08:26:24.000Z,12.27
2022-08-30T08:28:54.366Z,8.52
2022-08-30T08:31:28.844Z,10.25
2022-08-30T08:34:03.325Z,12.43
2022-08-30T08:36:32.097Z,9.65
2022-08-30T08:39:01.472Z,8.23
2022-08-30T08:41:39.956Z,6.63
2022-08-30T08:44:15.432Z,7.90
2022-08-30T08:46:55.516Z,5.90
2022-08-30T08:49:24.713Z,10.07
2022-08-30T08:52:12.766Z,7.45
2022-08-30T08:54:47.740Z,7.47
2022-08-30T08:57:17.075Z,6.10
2022-08-30T08:59:46.445Z,6.95
2022-08-30T09:02:25.094Z,7.95
2022-08-30T09:04:58.924Z,5.85
2022-08-30T09:07:31.064Z,6.53
2022-08-30T09:10:01.336Z,5.50
2022-08-30T09:12:30.093Z,5.93
2022-08-30T09:15:08.182Z,8.15
2022-08-30T09:17:52.504Z,8.23
2022-08-30T09:20:32.499Z,7.22
2022-08-30T09:23:00.984Z,5.20
2022-08-30T09:25:33.396Z,5.40
2022-08-30T09:28:11.949Z,7.25
2022-08-30T09:30:40.363Z,8.70
2022-08-30T09:33:20.632Z,5.57
2022-08-30T09:35:52.070Z,6.13
2022-08-30T09:38:24.646Z,6.07
2022-08-30T09:40:55.887Z,4.80
2022-08-30T09:43:26.231Z,4.43
2022-08-30T09:46:16.483Z,6.18
2022-08-30T09:48:46.228Z,5.03
2022-08-30T09:51:50.589Z,7.13
2022-08-30T09:54:26.160Z,5.40
2022-08-30T09:57:12.603Z,7.03
2022-08-30T09:59:49.727Z,4.93
2022-08-30T10:02:36.717Z,6.63
2022-08-30T10:05:15.617Z,5.75
2022-08-30T10:07:53.703Z,5.10
2022-08-30T10:10:31.733Z,6.22
2022-08-30T10:13:12.070Z,3.97
2022-08-30T10:15:46.911Z,5.82
2022-08-30T10:18:25.581Z,4.82
2022-08-30T10:21:04.727Z,12.02
2022-08-30T10:23:38.742Z,4.65
2022-08-30T10:26:14.878Z,5.18
2022-08-30T10:28:52.496Z,4.78
2022-08-30T10:31:31.946Z,5.95
2022-08-30T10:34:05.750Z,5.60
2022-08-30T10:36:41.188Z,4.93
2022-08-30T10:39:14.913Z,6.95
2022-08-30T10:41:50.401Z,4.57
2022-08-30T10:44:23.366Z,4.07
2022-08-30T10:47:01.513Z,4.20
2022-08-30T10:49:32.948Z,5.47
2022-08-30T10:52:10.106Z,3.38
2022-08-30T10:57:11.174Z,3.00
2022-08-30T10:59:47.861Z,4.47
2022-08-30T11:02:38.678Z,5.72
2022-08-30T11:05:23.955Z,5.57
2022-08-30T11:08:03.299Z,3.42
2022-08-30T11:10:47.842Z,4.85
2022-08-30T11:13:22.103Z,4.75
2022-08-30T11:16:00.748Z,3.78
2022-08-30T11:18:31.971Z,3.75
2022-08-30T11:21:25.728Z,4.03
2022-08-30T11:24:05.600Z,3.55
2022-08-30T11:26:59.619Z,5.15
2022-08-30T11:29:41.508Z,3.88
2022-08-30T11:32:59.367Z,3.28
2022-08-30T11:35:48.697Z,3.28
2022-08-30T11:38:41.626Z,4.97
2022-08-30T11:41:12.705Z,2.42
2022-08-30T11:43:54.280Z,4.53
2022-08-30T11:46:40.898Z,5.63
2022-08-30T11:49:47.869Z,2.75
2022-08-30T11:52:46.811Z,3.25
2022-08-30T11:55:45.854Z,4.13
2022-08-30T11:58:31.152Z,2.55
2022-08-30T12:01:51.203Z,3.42
2022-08-30T12:04:35.474Z,2.47
2022-08-30T12:07:06.447Z,3.00
2022-08-30T12:10:07.907Z,2.72
2022-08-30T12:12:55.820Z,3.92
2022-08-30T12:15:56.481Z,6.25
2022-08-30T12:18:44.566Z,4.97
2022-08-30T12:21:28.076Z,2.75
2022-08-30T12:24:03.922Z,2.38
2022-08-30T12:26:36.924Z,3.08
2022-08-30T12:29:17.272Z,4.07
2022-08-30T12:31:48.975Z,2.88
2022-08-30T12:34:25.299Z,2.95
2022-08-30T12:37:00.622Z,3.78
2022-08-30T12:39:31.251Z,2.92
2022-08-30T12:42:14.659Z,4.88
2022-08-30T12:44:47.769Z,2.83
2022-08-30T12:47:23.725Z,2.60
2022-08-30T12:49:53.752Z,3.65
2022-08-30T12:52:35.295Z,2.88
2022-08-30T12:55:17.743Z,2.83
2022-08-30T12:58:09.771Z,2.70
2022-08-30T13:00:44.724Z,2.83
2022-08-30T13:03:30.710Z,3.00
2022-08-30T13:05:59.125Z,3.80
2022-08-30T13:08:34.470Z,5.93
2022-08-30T13:11:08.244Z,3.67
2022-08-30T13:13:41.342Z,2.90
2022-08-30T13:16:29.524Z,3.28
2022-08-30T13:19:23.543Z,2.95
2022-08-30T13:21:53.603Z,3.20
2022-08-30T13:24:25.367Z,2.13
2022-08-30T13:26:55.372Z,2.13
2022-08-30T13:29:29.126Z,2.10
2022-08-30T13:31:57.568Z,2.00
2022-08-30T13:34:26.380Z,3.25
2022-08-30T13:36:56.784Z,2.75
2022-08-30T13:39:25.529Z,2.40
2022-08-30T13:41:54.212Z,5.05
2022-08-30T13:44:22.639Z,4.20
2022-08-30T13:46:55.547Z,2.20
2022-08-30T13:52:21.243Z,3.38
2022-08-30T13:54:51.207Z,2.10
2022-08-30T14:00:14.556Z,3.42
2022-08-30T14:02:51.534Z,4.25
2022-08-30T14:05:47.684Z,3.95
2022-08-30T14:11:01.035Z,2.85
2022-08-30T14:13:29.592Z,2.92
2022-08-30T14:18:50.521Z,2.28
2022-08-30T14:21:21.273Z,3.17
2022-08-30T14:23:52.397Z,4.18
2022-08-30T14:26:23.257Z,2.97
2022-08-30T14:28:52.280Z,2.55
2022-08-30T14:31:20.714Z,4.68
2022-08-30T14:33:50.644Z,2.50
2022-08-30T14:36:19.919Z,2.97
2022-08-30T14:38:49.251Z,2.55
2022-08-30T14:41:18.154Z,1.77
2022-08-30T14:43:46.466Z,3.25
2022-08-30T14:46:14.615Z,3.33
2022-08-30T14:48:43.153Z,4.25
2022-08-30T14:51:18.168Z,4.50
2022-08-30T14:53:47.326Z,3.25
2022-08-30T14:56:19.897Z,2.20
2022-08-30T14:58:50.544Z,3.75
2022-08-30T15:01:19.806Z,2.75
2022-08-30T15:03:48.177Z,2.83
2022-08-30T15:06:17.981Z,3.92
2022-08-30T15:08:47.785Z,3.08
2022-08-30T15:11:18.927Z,3.55
2022-08-30T15:13:47.681Z,2.92
2022-08-30T15:16:18.836Z,6.90
2022-08-30T15:18:48.045Z,6.47
2022-08-30T15:21:24.017Z,3.92
2022-08-30T15:23:53.891Z,3.63
2022-08-30T15:26:22.285Z,5.05
2022-08-30T15:28:54.242Z,5.18
2022-08-30T15:31:24.180Z,4.88
2022-08-30T15:33:52.798Z,4.43
2022-08-30T15:36:22.316Z,4.53
2022-08-30T15:38:50.530Z,4.22
2022-08-30T15:41:18.609Z,2.88
2022-08-30T15:43:46.702Z,3.38
2022-08-30T15:46:22.522Z,4.53
2022-08-30T15:48:52.842Z,4.40
2022-08-30T15:51:23.041Z,3.90
2022-08-30T15:53:53.442Z,2.70
2022-08-30T15:56:24.679Z,4.32
2022-08-30T15:58:53.258Z,3.97
2022-08-30T16:01:30.055Z,4.53
2022-08-30T16:06:30.445Z,3.55
2022-08-30T16:08:59.802Z,3.25
2022-08-30T16:11:28.516Z,5.15
2022-08-30T16:13:57.834Z,2.63
2022-08-30T16:16:26.480Z,3.90
2022-08-30T16:18:55.428Z,3.28
2022-08-30T16:21:25.230Z,4.57
2022-08-30T16:23:56.440Z,4.22
2022-08-30T16:26:25.250Z,3.00
2022-08-30T16:28:57.407Z,4.32
2022-08-30T16:31:27.086Z,2.53
2022-08-30T16:34:02.517Z,2.58
2022-08-30T16:36:32.989Z,5.38
2022-08-30T16:39:03.775Z,2.38
2022-08-30T16:41:32.652Z,5.18
2022-08-30T16:44:01.509Z,3.28
2022-08-30T16:46:30.321Z,2.83
2022-08-30T16:49:01.473Z,4.22
2022-08-30T16:51:32.474Z,2.78
2022-08-30T16:54:03.960Z,3.75
2022-08-30T16:56:34.620Z,5.07
2022-08-30T16:59:03.528Z,3.28
2022-08-30T17:01:38.639Z,3.53
2022-08-30T17:04:08.816Z,3.72
2022-08-30T17:06:37.462Z,3.17
2022-08-30T17:09:08.497Z,3.88
2022-08-30T17:11:38.633Z,4.10
2022-08-30T17:14:08.966Z,3.38
2022-08-30T17:16:39.138Z,5.38
2022-08-30T17:19:10.340Z,3.75
2022-08-30T17:21:38.994Z,3.85
2022-08-30T17:24:08.726Z,2.45
2022-08-30T17:26:39.835Z,4.90
2022-08-30T17:29:08.313Z,7.10
2022-08-30T17:31:37.680Z,3.90
2022-08-30T17:34:06.784Z,4.43
2022-08-30T17:36:40.958Z,4.20
2022-08-30T17:39:11.822Z,3.75
2022-08-30T17:41:45.332Z,3.88
2022-08-30T17:44:19.645Z,5.28
2022-08-30T17:46:47.903Z,4.65
2022-08-30T17:49:16.199Z,3.00
2022-08-30T17:51:45.710Z,4.63
2022-08-30T17:54:17.690Z,3.35
2022-08-30T17:56:46.415Z,4.95
2022-08-30T17:59:16.681Z,4.55
2022-08-30T18:01:46.284Z,4.88
2022-08-30T18:04:19.732Z,2.78
2022-08-30T18:06:49.157Z,3.97
2022-08-30T18:09:19.219Z,5.90
2022-08-30T18:11:48.582Z,5.53
2022-08-30T18:14:17.246Z,3.95
2022-08-30T18:16:53.362Z,2.78
2022-08-30T18:19:23.663Z,3.90
2022-08-30T18:21:55.182Z,3.97
2022-08-30T18:24:25.333Z,5.28
2022-08-30T18:26:54.867Z,9.23
2022-08-30T18:29:30.235Z,6.40
2022-08-30T18:31:59.687Z,3.33
2022-08-30T18:34:31.074Z,4.15
2022-08-30T18:36:59.503Z,3.92
2022-08-30T18:39:34.244Z,5.30
2022-08-30T18:42:03.839Z,4.00
2022-08-30T18:47:23.203Z,5.35
2022-08-30T18:49:53.449Z,4.80
2022-08-30T18:52:22.215Z,4.50
2022-08-30T18:54:52.885Z,5.35
2022-08-30T18:57:21.480Z,3.92
2022-08-30T18:59:52.523Z,4.35
2022-08-30T19:02:21.053Z,6.07
2022-08-30T19:04:55.776Z,3.80
2022-08-30T19:07:28.886Z,3.63
2022-08-30T19:10:04.535Z,4.35
2022-08-30T19:12:32.689Z,3.75
2022-08-30T19:15:01.684Z,3.95
2022-08-30T19:17:41.357Z,4.20
2022-08-30T19:20:10.954Z,4.68
2022-08-30T19:23:09.339Z,4.60
2022-08-30T19:25:32.211Z,3.42
2022-08-30T19:28:02.433Z,6.45
2022-08-30T19:30:33.852Z,5.53
2022-08-30T19:33:01.862Z,3.67
2022-08-30T19:35:30.636Z,3.95
2022-08-30T19:37:59.457Z,3.55
2022-08-30T19:40:27.930Z,6.60
2022-08-30T19:42:58.225Z,3.58
2022-08-30T19:45:26.416Z,5.10
2022-08-30T19:47:54.909Z,3.05
2022-08-30T19:50:47.755Z,3.22
2022-08-30T19:53:15.963Z,4.18
2022-08-30T19:55:44.124Z,5.00
2022-08-30T19:58:13.780Z,3.47
2022-08-30T20:00:54.436Z,2.63
2022-08-30T20:03:29.958Z,3.75
2022-08-30T20:05:58.104Z,3.72
2022-08-30T20:08:27.784Z,3.28
2022-08-30T20:12:18.234Z,5.68
2022-08-30T20:15:37.646Z,6.28
2022-08-30T20:18:14.353Z,3.22
2022-08-30T20:20:49.454Z,5.50
2022-08-30T20:23:20.327Z,7.60
2022-08-30T20:24:29.396Z,4.25
2022-08-30T20:25:51.750Z,4.38
2022-08-30T20:28:20.603Z,3.47
2022-08-30T20:30:48.938Z,4.90
2022-08-30T20:33:18.837Z,4.30
2022-08-30T20:35:49.568Z,3.83
2022-08-30T20:38:21.938Z,4.90
2022-08-30T20:40:52.553Z,5.85
2022-08-30T20:43:21.965Z,3.20
2022-08-30T20:45:50.326Z,3.47
2022-08-30T20:48:20.524Z,3.25
2022-08-30T20:50:49.399Z,4.05
2022-08-30T20:53:17.483Z,3.30
2022-08-30T20:55:47.817Z,5.78
2022-08-30T20:58:16.443Z,4.28
2022-08-30T21:00:46.061Z,3.33
2022-08-30T21:03:26.562Z,3.65
2022-08-30T21:06:00.377Z,3.30
2022-08-30T21:08:28.582Z,3.80
2022-08-30T21:10:56.763Z,3.28
2022-08-30T21:13:25.159Z,3.08
2022-08-30T21:15:54.995Z,3.55
2022-08-30T21:18:23.526Z,3.45
2022-08-30T21:20:51.793Z,4.05
2022-08-30T21:23:21.252Z,4.80
2022-08-30T21:25:50.236Z,4.72
2022-08-30T21:28:20.496Z,5.72
2022-08-30T21:30:48.648Z,6.68
2022-08-30T21:33:16.856Z,4.53
2022-08-30T21:36:02.585Z,4.38
2022-08-30T21:38:31.981Z,5.03
2022-08-30T21:41:00.113Z,4.05
2022-08-30T21:43:28.194Z,6.78
2022-08-30T21:45:56.382Z,3.17
2022-08-30T21:48:24.629Z,4.50
2022-08-30T21:50:55.379Z,4.70
2022-08-30T21:53:23.567Z,5.63
2022-08-30T21:55:53.481Z,5.03
2022-08-30T21:58:21.849Z,6.60
2022-08-30T22:00:49.969Z,3.97
2022-08-30T22:03:18.301Z,5.65
2022-08-30T22:05:52.925Z,6.18
2022-08-30T22:08:21.104Z,4.43
2022-08-30T22:10:53.076Z,5.28
2022-08-30T22:13:21.252Z,6.53
2022-08-30T22:15:49.617Z,6.18
2022-08-30T22:18:18.025Z,6.55
2022-08-30T22:20:47.224Z,4.65
2022-08-30T22:23:19.032Z,5.80
2022-08-30T22:25:47.555Z,5.35
2022-08-30T22:28:17.014Z,3.20
2022-08-30T22:30:45.261Z,6.28
2022-08-30T22:33:17.261Z,5.35
2022-08-30T22:35:45.767Z,5.25
2022-08-30T22:38:14.892Z,6.65
2022-08-30T22:40:46.114Z,12.45
2022-08-30T22:43:16.856Z,5.32
2022-08-30T22:45:45.746Z,5.07
2022-08-30T22:48:14.119Z,6.07
2022-08-30T22:50:42.244Z,8.23
2022-08-30T22:53:10.505Z,4.28
2022-08-30T22:55:40.988Z,4.05
2022-08-30T22:58:09.117Z,6.40
2022-08-30T23:00:42.875Z,4.85
2022-08-30T23:03:23.069Z,5.13
2022-08-30T23:06:01.772Z,6.90
2022-08-30T23:08:46.243Z,6.13
2022-08-30T23:11:24.700Z,3.85
2022-08-30T23:14:00.182Z,4.93
2022-08-30T23:16:39.676Z,4.53
2022-08-30T23:19:26.684Z,6.18
2022-08-30T23:21:55.737Z,7.25
2022-08-30T23:24:41.341Z,4.00
2022-08-30T23:27:32.017Z,5.13
2022-08-30T23:30:19.582Z,7.00
2022-08-30T23:33:06.559Z,6.65
2022-08-30T23:35:52.451Z,7.72
2022-08-30T23:38:37.887Z,6.28
2022-08-30T23:41:23.868Z,7.43
2022-08-30T23:44:14.573Z,5.07
2022-08-30T23:47:02.623Z,7.00
2022-08-30T23:49:49.561Z,6.13
2022-08-30T23:52:35.276Z,5.82
2022-08-30T23:55:20.849Z,4.75
2022-08-30T23:58:06.502Z,7.03
